Time;durP1;ratioP1;P1;durP2;ratioP2;P2;SDS_P1;SDS_P2;PMS_P1;PMS_P2;Temp;Humidity;BMP_temperature;BMP_pressure;BME280_temperature;BME280_humidity;BME280_pressure;Samples;Min_cycle;Max_cycle;Signal;HPM_P1;HPM_P2
2023/09/25 00:00:00;;;;;;;817.07;768.90;;;9.80;99.90;;;;;;5073756;28;20450;-71
2023/09/25 00:02:28;;;;;;;790.87;743.67;;;9.80;99.90;;;;;;5073730;28;20451;-71
2023/09/25 00:04:54;;;;;;;805.90;757.50;;;9.80;99.90;;;;;;5073563;28;20461;-71
2023/09/25 00:07:21;;;;;;;777.27;730.57;;;9.80;99.90;;;;;;5073386;28;20834;-71
2023/09/25 00:09:48;;;;;;;812.83;764.33;;;9.80;99.90;;;;;;5073546;28;20450;-71
2023/09/25 00:12:15;;;;;;;822.73;773.73;;;9.80;99.90;;;;;;5073287;28;20848;-71
2023/09/25 00:14:41;;;;;;;840.20;790.20;;;9.70;99.90;;;;;;5073715;28;20454;-71
2023/09/25 00:17:10;;;;;;;849.20;798.77;;;9.60;99.90;;;;;;5073410;28;20443;-71
2023/09/25 00:19:36;;;;;;;869.00;817.20;;;9.50;99.90;;;;;;5073298;28;20453;-71
2023/09/25 00:22:04;;;;;;;863.13;812.47;;;9.50;99.90;;;;;;5072870;28;20455;-71
2023/09/25 00:24:30;;;;;;;895.23;841.37;;;9.40;99.90;;;;;;5073141;28;20455;-71
2023/09/25 00:26:56;;;;;;;924.07;869.07;;;9.40;99.90;;;;;;5073025;28;20895;-71
2023/09/25 00:29:24;;;;;;;941.63;884.87;;;9.40;99.90;;;;;;5072942;28;20964;-71
2023/09/25 00:31:51;;;;;;;965.30;905.80;;;9.30;99.90;;;;;;5073163;28;20466;-71
2023/09/25 00:34:19;;;;;;;973.43;911.23;;;9.30;99.90;;;;;;5072311;28;20464;-71
2023/09/25 00:36:46;;;;;;;1015.77;948.63;;;9.40;99.90;;;;;;5072936;28;20831;-71
2023/09/25 00:39:13;;;;;;;1013.60;946.77;;;9.40;99.90;;;;;;5072869;28;20508;-71
2023/09/25 00:41:40;;;;;;;1014.37;947.20;;;9.40;99.90;;;;;;5072821;28;20500;-71
2023/09/25 00:44:07;;;;;;;1029.53;959.63;;;9.50;99.90;;;;;;5073192;28;20442;-71
2023/09/25 00:46:34;;;;;;;1002.30;934.63;;;9.60;99.90;;;;;;5073012;28;20478;-71
2023/09/25 00:49:01;;;;;;;1037.60;965.67;;;9.60;99.90;;;;;;5072901;28;20931;-71
2023/09/25 00:51:29;;;;;;;1011.23;942.63;;;9.70;99.90;;;;;;5072690;28;20938;-71
2023/09/25 00:53:57;;;;;;;1026.40;956.60;;;9.70;99.90;;;;;;5072655;28;20447;-71
2023/09/25 00:56:24;;;;;;;1032.37;965.00;;;9.80;99.90;;;;;;5072198;28;20446;-71
2023/09/25 00:58:50;;;;;;;1017.47;954.10;;;9.80;99.90;;;;;;5072731;28;20451;-71
2023/09/25 01:01:18;;;;;;;1001.93;938.07;;;9.70;99.90;;;;;;5072663;28;20446;-71
2023/09/25 01:03:44;;;;;;;1020.80;954.70;;;9.70;99.90;;;;;;5072741;28;20482;-71
2023/09/25 01:06:12;;;;;;;1036.93;967.60;;;9.60;99.90;;;;;;5072435;28;20470;-71
2023/09/25 01:08:40;;;;;;;1032.27;961.40;;;9.60;99.90;;;;;;5052427;28;20483;-71
2023/09/25 01:11:08;;;;;;;1032.63;960.83;;;9.70;99.90;;;;;;5068773;28;20446;-71
2023/09/25 01:13:34;;;;;;;1028.83;958.60;;;9.80;99.90;;;;;;5054020;28;20447;-71
2023/09/25 01:16:02;;;;;;;1037.23;968.10;;;9.80;99.90;;;;;;5072539;28;20454;-71
2023/09/25 01:18:29;;;;;;;1029.67;963.40;;;9.80;99.90;;;;;;5072077;28;20450;-71
2023/09/25 01:20:56;;;;;;;1017.67;952.40;;;9.80;99.90;;;;;;5072069;28;20453;-71
2023/09/25 01:23:24;;;;;;;1012.83;948.40;;;9.80;99.90;;;;;;5072392;28;20942;-71
2023/09/25 01:25:51;;;;;;;1019.13;953.83;;;9.80;99.90;;;;;;5071940;28;20442;-71
2023/09/25 01:28:18;;;;;;;1005.50;941.90;;;9.80;99.90;;;;;;5072120;28;20486;-71
2023/09/25 01:30:45;;;;;;;996.80;934.50;;;9.90;99.90;;;;;;5071824;28;20486;-71
2023/09/25 01:33:12;;;;;;;992.53;930.37;;;9.80;99.90;;;;;;5071820;28;20450;-71
2023/09/25 01:35:39;;;;;;;990.53;928.50;;;9.80;99.90;;;;;;5071883;28;20542;-71
2023/09/25 01:38:05;;;;;;;974.33;914.33;;;9.70;99.90;;;;;;5072305;28;20470;-71
2023/09/25 01:40:34;;;;;;;979.13;918.03;;;9.60;99.90;;;;;;5071866;28;20451;-71
2023/09/25 01:43:02;;;;;;;981.20;920.00;;;9.60;99.90;;;;;;5071452;28;20447;-71
2023/09/25 01:45:29;;;;;;;990.80;929.83;;;9.50;99.90;;;;;;5072057;28;20549;-71
2023/09/25 01:47:56;;;;;;;987.37;927.43;;;9.40;99.90;;;;;;5071864;28;20839;-71
2023/09/25 01:50:25;;;;;;;974.67;916.80;;;9.30;99.90;;;;;;5071618;28;20954;-71
2023/09/25 01:52:54;;;;;;;990.60;930.40;;;9.20;99.90;;;;;;5071498;28;20537;-71
2023/09/25 01:55:21;;;;;;;1024.53;957.13;;;9.20;99.90;;;;;;5072180;28;20780;-71
2023/09/25 01:57:49;;;;;;;1032.30;962.10;;;9.20;99.90;;;;;;5071994;28;20454;-71
2023/09/25 02:00:18;;;;;;;1034.00;959.33;;;9.20;99.90;;;;;;5071678;28;20446;-71
2023/09/25 02:02:45;;;;;;;1033.03;959.87;;;9.20;99.90;;;;;;5071344;28;20446;-71
2023/09/25 02:05:12;;;;;;;1032.37;957.60;;;9.20;99.90;;;;;;5071709;28;20452;-71
2023/09/25 02:07:40;;;;;;;1026.47;952.10;;;9.20;99.90;;;;;;5072726;28;20480;-71
2023/09/25 02:10:08;;;;;;;1017.27;945.07;;;9.20;99.90;;;;;;5075771;28;20889;-71
2023/09/25 02:12:35;;;;;;;1029.77;955.17;;;9.20;99.90;;;;;;5059810;28;20446;-71
2023/09/25 02:15:06;;;;;;;1036.03;962.10;;;9.20;99.90;;;;;;5075833;28;20818;-71
2023/09/25 02:17:33;;;;;;;1039.43;964.43;;;9.20;99.90;;;;;;5075679;28;20449;-71
2023/09/25 02:20:16;;;;;;;1034.33;960.03;;;9.20;99.90;;;;;;5075422;28;20943;-71
2023/09/25 02:22:43;;;;;;;1024.97;952.13;;;9.30;99.90;;;;;;5075667;28;20520;-71
2023/09/25 02:25:10;;;;;;;1032.13;959.23;;;9.30;99.90;;;;;;5075234;28;20452;-71
2023/09/25 02:27:38;;;;;;;1029.53;956.93;;;9.20;99.90;;;;;;5075137;28;20569;-71
2023/09/25 02:30:09;;;;;;;1039.70;965.10;;;9.20;99.90;;;;;;5075157;28;20450;-71
2023/09/25 02:32:36;;;;;;;1033.00;960.83;;;9.20;99.90;;;;;;5075243;28;20458;-71
2023/09/25 02:35:03;;;;;;;1019.60;947.50;;;9.20;99.90;;;;;;5074487;28;20827;-71
2023/09/25 02:37:31;;;;;;;1010.00;942.07;;;9.10;99.90;;;;;;5075283;28;20485;-71
2023/09/25 02:39:57;;;;;;;1004.17;939.77;;;9.00;99.90;;;;;;5075249;28;20442;-71
2023/09/25 02:42:24;;;;;;;993.90;930.50;;;8.80;99.90;;;;;;5075241;28;20579;-71
2023/09/25 02:44:51;;;;;;;989.13;927.37;;;8.70;99.90;;;;;;5075759;28;20455;-71
2023/09/25 02:47:19;;;;;;;1000.40;936.50;;;8.60;99.90;;;;;;5075226;28;20474;-71
2023/09/25 02:49:46;;;;;;;1001.13;933.43;;;8.50;99.90;;;;;;5075125;28;20460;-71
2023/09/25 02:52:13;;;;;;;1010.83;941.47;;;8.40;99.90;;;;;;5074997;28;20446;-71
2023/09/25 02:54:40;;;;;;;1013.57;940.97;;;8.30;99.90;;;;;;5075161;28;20817;-71
2023/09/25 02:57:06;;;;;;;1019.50;942.33;;;8.30;99.90;;;;;;5075148;28;20449;-71
2023/09/25 02:59:33;;;;;;;1019.23;937.83;;;8.30;99.90;;;;;;5074887;28;20887;-71
2023/09/25 03:02:00;;;;;;;1020.67;937.67;;;8.30;99.90;;;;;;5075163;28;20450;-71
2023/09/25 03:04:28;;;;;;;1029.83;943.87;;;8.30;99.90;;;;;;5075268;28;21016;-71
2023/09/25 03:06:57;;;;;;;1027.67;939.50;;;8.40;99.90;;;;;;5074948;28;20482;-71
2023/09/25 03:09:24;;;;;;;1029.17;943.40;;;8.60;99.90;;;;;;5074812;28;20507;-70
2023/09/25 03:11:51;;;;;;;1040.37;951.50;;;8.60;99.90;;;;;;5074201;28;20457;-71
2023/09/25 03:14:18;;;;;;;1035.37;949.00;;;8.70;99.90;;;;;;5074630;28;20454;-71
2023/09/25 03:16:46;;;;;;;1035.50;948.43;;;8.70;99.90;;;;;;5058529;28;20443;-71
2023/09/25 03:19:12;;;;;;;1048.97;963.87;;;8.80;99.90;;;;;;5073301;28;20443;-71
2023/09/25 03:21:42;;;;;;;1044.83;965.87;;;8.60;99.90;;;;;;5074359;28;20957;-71
2023/09/25 03:24:09;;;;;;;1058.43;980.60;;;8.50;99.90;;;;;;5074378;28;20454;-70
2023/09/25 03:26:36;;;;;;;1058.37;981.87;;;8.40;99.90;;;;;;5073861;28;20450;-70
2023/09/25 03:29:06;;;;;;;1050.17;974.03;;;8.30;99.90;;;;;;5074366;28;20459;-70
2023/09/25 03:31:33;;;;;;;1055.00;976.80;;;8.30;99.90;;;;;;5073908;28;20489;-70
2023/09/25 03:34:00;;;;;;;1046.83;967.73;;;8.30;99.90;;;;;;5074040;28;20830;-70
2023/09/25 03:36:26;;;;;;;1037.87;960.37;;;8.30;99.90;;;;;;5074366;28;20450;-70
2023/09/25 03:38:55;;;;;;;1038.83;962.50;;;8.30;99.90;;;;;;5074102;28;20442;-70
2023/09/25 03:41:22;;;;;;;1016.30;939.33;;;8.20;99.90;;;;;;5073424;28;20451;-70
2023/09/25 03:43:48;;;;;;;1025.40;948.60;;;8.20;99.90;;;;;;5074153;28;20453;-70
2023/09/25 03:46:15;;;;;;;1035.00;953.07;;;8.10;99.90;;;;;;5073835;28;20455;-70
2023/09/25 03:48:42;;;;;;;1031.30;947.03;;;8.10;99.90;;;;;;5073712;28;20552;-70
2023/09/25 03:51:09;;;;;;;1025.13;941.83;;;8.10;99.90;;;;;;5073921;28;20457;-70
2023/09/25 03:53:36;;;;;;;1026.63;943.27;;;8.10;99.90;;;;;;5073892;28;20944;-70
2023/09/25 03:56:04;;;;;;;1031.73;949.07;;;8.10;99.90;;;;;;5073828;28;20454;-70
2023/09/25 03:58:31;;;;;;;1031.10;946.53;;;8.00;99.90;;;;;;5073891;28;20449;-70
2023/09/25 04:00:58;;;;;;;1032.27;945.80;;;8.10;99.90;;;;;;5073413;28;20446;-70
2023/09/25 04:03:25;;;;;;;1024.43;931.00;;;8.10;99.90;;;;;;5073337;28;20449;-70
2023/09/25 04:05:52;;;;;;;1036.00;942.80;;;8.30;99.90;;;;;;5073621;28;20446;-70
2023/09/25 04:08:19;;;;;;;1037.67;946.30;;;8.40;99.90;;;;;;5073563;28;20474;-70
2023/09/25 04:10:46;;;;;;;1030.20;941.40;;;8.50;99.90;;;;;;5073415;28;20458;-69
2023/09/25 04:13:16;;;;;;;1046.30;954.97;;;8.40;99.90;;;;;;5073282;28;20801;-70
2023/09/25 04:15:42;;;;;;;1045.13;956.08;;;8.50;99.90;;;;;;5069725;28;20549;-71
2023/09/25 04:18:09;;;;;;;1039.60;953.23;;;8.60;99.90;;;;;;5072961;28;20271;-70
2023/09/25 04:20:38;;;;;;;1031.43;943.87;;;8.80;99.90;;;;;;5072883;28;20960;-71
2023/09/25 04:23:05;;;;;;;1014.20;932.83;;;8.90;99.90;;;;;;5072906;28;20457;-71
2023/09/25 04:25:32;;;;;;;1007.77;926.43;;;9.10;99.90;;;;;;5072766;28;20457;-71
2023/09/25 04:28:00;;;;;;;1010.30;932.23;;;9.20;99.90;;;;;;5071849;28;20467;-72
2023/09/25 04:30:29;;;;;;;1002.57;926.07;;;9.30;99.90;;;;;;5073170;28;20457;-71
2023/09/25 04:32:55;;;;;;;1004.33;929.83;;;9.40;99.90;;;;;;5073098;28;20506;-70
2023/09/25 04:35:23;;;;;;;991.40;917.20;;;9.50;99.90;;;;;;5073121;28;20453;-70
2023/09/25 04:37:50;;;;;;;990.30;919.53;;;9.60;99.90;;;;;;5072992;28;20449;-70
2023/09/25 04:40:23;;;;;;;994.80;926.93;;;9.60;99.90;;;;;;5072650;28;20456;-70
2023/09/25 04:42:51;;;;;;;985.67;920.77;;;9.50;99.90;;;;;;5072217;28;20972;-70
2023/09/25 04:45:19;;;;;;;1003.37;937.00;;;9.50;99.90;;;;;;5072477;28;20877;-70
2023/09/25 04:47:48;;;;;;;998.63;933.73;;;9.50;99.90;;;;;;5072685;28;20566;-71
2023/09/25 04:50:15;;;;;;;989.43;923.77;;;9.50;99.90;;;;;;5072365;28;20958;-70
2023/09/25 04:52:44;;;;;;;984.77;919.83;;;9.50;99.90;;;;;;5072931;28;20446;-70
2023/09/25 04:55:12;;;;;;;979.33;915.63;;;9.60;99.90;;;;;;5072994;28;20446;-70
2023/09/25 04:57:39;;;;;;;944.90;885.10;;;9.70;99.90;;;;;;5072897;28;20439;-70
2023/09/25 05:00:13;;;;;;;926.47;869.17;;;9.80;99.90;;;;;;5072636;28;20450;-70
2023/09/25 05:02:40;;;;;;;878.70;825.50;;;9.80;99.90;;;;;;5072599;28;20822;-71
2023/09/25 05:05:09;;;;;;;835.03;785.33;;;9.90;99.90;;;;;;5072873;28;20446;-71
2023/09/25 05:07:36;;;;;;;816.77;769.27;;;9.90;99.90;;;;;;5072933;28;20478;-70
2023/09/25 05:10:04;;;;;;;784.33;739.80;;;10.00;99.90;;;;;;5072581;28;20450;-71
2023/09/25 05:12:30;;;;;;;719.17;679.17;;;10.10;99.90;;;;;;5072390;28;20489;-70
2023/09/25 05:14:57;;;;;;;679.40;642.87;;;10.10;99.90;;;;;;5072709;28;20454;-70
2023/09/25 05:17:24;;;;;;;682.40;645.87;;;10.10;99.90;;;;;;5072757;28;20445;-70
2023/09/25 05:19:51;;;;;;;680.00;644.10;;;10.00;99.90;;;;;;5072193;28;20454;-72
2023/09/25 05:22:19;;;;;;;680.40;643.90;;;10.00;99.90;;;;;;5072273;28;20451;-70
2023/09/25 05:24:46;;;;;;;717.17;678.13;;;10.00;99.90;;;;;;5072409;28;20773;-70
2023/09/25 05:27:12;;;;;;;743.50;702.43;;;9.90;99.90;;;;;;5072190;28;20453;-70
2023/09/25 05:29:40;;;;;;;760.50;718.50;;;9.90;99.90;;;;;;5072424;28;20454;-70
2023/09/25 05:32:07;;;;;;;789.23;745.20;;;9.80;99.90;;;;;;5072398;28;20489;-70
2023/09/25 05:34:34;;;;;;;828.53;781.63;;;9.80;99.90;;;;;;5072237;28;20456;-70
2023/09/25 05:37:00;;;;;;;857.77;808.23;;;9.80;99.90;;;;;;5072413;28;20450;-70
2023/09/25 05:39:29;;;;;;;872.83;821.77;;;9.80;99.90;;;;;;5072066;28;20807;-70
2023/09/25 05:41:56;;;;;;;881.47;829.57;;;9.80;99.90;;;;;;5071083;28;20455;-70
2023/09/25 05:44:22;;;;;;;894.67;841.57;;;9.80;99.90;;;;;;5071834;28;20450;-70
2023/09/25 05:46:49;;;;;;;903.90;850.07;;;9.90;99.90;;;;;;5071342;28;20454;-70
2023/09/25 05:49:16;;;;;;;917.97;862.30;;;9.90;99.90;;;;;;5071452;28;20470;-70
2023/09/25 05:51:43;;;;;;;916.90;861.00;;;9.90;99.90;;;;;;5070499;28;20443;-70
2023/09/25 05:54:09;;;;;;;900.30;846.03;;;9.90;99.90;;;;;;5071401;28;20451;-71
2023/09/25 05:56:38;;;;;;;911.23;856.73;;;10.00;99.90;;;;;;5070505;28;20451;-70
2023/09/25 05:59:05;;;;;;;899.57;846.07;;;10.10;99.90;;;;;;5072153;28;20446;-69
2023/09/25 06:01:32;;;;;;;880.83;828.80;;;10.10;99.90;;;;;;5072038;28;20796;-70
2023/09/25 06:03:58;;;;;;;881.97;831.20;;;10.20;99.90;;;;;;5071636;28;20443;-70
2023/09/25 06:06:25;;;;;;;874.90;824.77;;;10.20;99.90;;;;;;5069907;28;20453;-70
2023/09/25 06:08:52;;;;;;;866.53;815.80;;;10.30;99.90;;;;;;5071009;28;20470;-70
2023/09/25 06:11:19;;;;;;;844.73;795.50;;;10.30;99.90;;;;;;5071091;28;20545;-71
2023/09/25 06:13:48;;;;;;;842.20;793.30;;;10.40;99.90;;;;;;5070742;28;20523;-70
2023/09/25 06:16:16;;;;;;;848.90;800.00;;;10.50;99.90;;;;;;5071126;28;20537;-71
2023/09/25 06:18:43;;;;;;;851.53;802.43;;;10.50;99.90;;;;;;5071218;28;20799;-70
2023/09/25 06:21:10;;;;;;;836.40;788.40;;;10.60;99.90;;;;;;5071526;28;20950;-70
2023/09/25 06:23:37;;;;;;;828.43;781.57;;;10.70;99.90;;;;;;5070659;28;20446;-70
2023/09/25 06:26:06;;;;;;;820.20;773.80;;;10.90;99.90;;;;;;5071005;28;20797;-71
2023/09/25 06:28:33;;;;;;;790.93;748.80;;;11.00;99.90;;;;;;5070335;28;20497;-71
2023/09/25 06:31:01;;;;;;;736.83;698.33;;;11.10;99.90;;;;;;5070605;28;20461;-70
2023/09/25 06:33:28;;;;;;;707.40;672.47;;;11.20;99.90;;;;;;5071600;28;20458;-72
2023/09/25 06:35:55;;;;;;;663.43;631.93;;;11.30;99.90;;;;;;5071428;28;20458;-70
2023/09/25 06:38:22;;;;;;;564.13;539.30;;;11.40;99.90;;;;;;5070603;28;20530;-70
2023/09/25 06:40:49;;;;;;;524.60;503.30;;;11.50;99.90;;;;;;5069887;28;20447;-70
2023/09/25 06:43:16;;;;;;;521.43;500.27;;;11.60;99.90;;;;;;5071647;28;20822;-71
2023/09/25 06:45:44;;;;;;;510.37;489.97;;;11.70;99.90;;;;;;5070248;28;20446;-71
2023/09/25 06:48:12;;;;;;;488.70;469.40;;;11.80;99.90;;;;;;5070083;28;20556;-71
2023/09/25 06:50:38;;;;;;;425.67;410.23;;;11.90;99.90;;;;;;5063493;28;20454;-71
2023/09/25 06:53:05;;;;;;;418.47;403.50;;;11.90;99.90;;;;;;5071264;28;20930;-71
2023/09/25 06:55:33;;;;;;;346.90;335.63;;;12.00;99.90;;;;;;5073736;28;20446;-71
2023/09/25 06:58:00;;;;;;;239.60;232.07;;;12.10;99.90;;;;;;5075119;28;20581;-71
2023/09/25 07:00:26;;;;;;;302.73;292.73;;;12.20;99.90;;;;;;5074754;28;20450;-71
2023/09/25 07:02:53;;;;;;;307.47;297.87;;;12.20;99.90;;;;;;5074902;28;20457;-70
2023/09/25 07:05:21;;;;;;;284.23;274.83;;;12.30;99.90;;;;;;5074922;28;20447;-71
2023/09/25 07:07:50;;;;;;;309.83;299.90;;;12.40;99.90;;;;;;5075210;28;20501;-71
2023/09/25 07:10:17;;;;;;;267.33;259.13;;;12.50;99.90;;;;;;5078630;28;20477;-71
2023/09/25 07:12:44;;;;;;;174.23;168.30;;;12.60;99.90;;;;;;5075511;28;20457;-71
2023/09/25 07:15:12;;;;;;;161.97;156.77;;;12.80;99.90;;;;;;5074440;28;20458;-71
2023/09/25 07:17:39;;;;;;;139.77;134.97;;;12.90;99.90;;;;;;5073381;28;20446;-72
2023/09/25 07:20:07;;;;;;;123.17;118.90;;;13.00;99.90;;;;;;5073909;28;20457;-71
2023/09/25 07:22:35;;;;;;;44.87;42.90;;;13.10;99.90;;;;;;5072104;28;20478;-71
2023/09/25 07:25:02;;;;;;;34.47;32.80;;;13.10;99.90;;;;;;5072996;28;20454;-71
2023/09/25 07:27:29;;;;;;;29.37;28.03;;;13.20;99.90;;;;;;5074079;28;20468;-71
2023/09/25 07:29:55;;;;;;;19.03;18.03;;;13.30;99.90;;;;;;5073496;28;20478;-71
2023/09/25 07:32:22;;;;;;;14.67;13.77;;;13.40;99.90;;;;;;5074368;28;20922;-72
2023/09/25 07:34:49;;;;;;;7.97;7.30;;;13.50;99.90;;;;;;5074404;28;20516;-71
2023/09/25 07:37:17;;;;;;;8.63;7.03;;;13.60;99.90;;;;;;5074963;28;20961;-71
2023/09/25 07:39:45;;;;;;;8.73;7.50;;;13.60;99.90;;;;;;5075005;28;20443;-70
2023/09/25 07:42:13;;;;;;;8.50;6.33;;;13.70;99.90;;;;;;5074613;28;20446;-71
2023/09/25 07:44:39;;;;;;;7.10;5.20;;;13.90;99.90;;;;;;5075021;28;20450;-70
2023/09/25 07:47:10;;;;;;;8.47;7.67;;;14.00;99.90;;;;;;5074969;28;20458;-71
2023/09/25 07:49:40;;;;;;;5.70;4.20;;;14.20;99.90;;;;;;5074323;28;20470;-71
2023/09/25 07:52:16;;;;;;;6.07;3.43;;;14.40;99.90;;;;;;5074735;28;20448;-71
2023/09/25 07:54:45;;;;;;;6.80;3.60;;;14.40;99.90;;;;;;5074070;28;20988;-70
2023/09/25 07:57:14;;;;;;;5.83;3.70;;;14.50;99.50;;;;;;5073495;28;20453;-70
2023/09/25 07:59:41;;;;;;;6.30;3.60;;;14.60;99.50;;;;;;5073800;28;20945;-71
2023/09/25 08:02:08;;;;;;;8.87;3.10;;;14.70;99.60;;;;;;5073697;28;20512;-67
2023/09/25 08:04:35;;;;;;;7.50;4.37;;;14.80;99.60;;;;;;5074430;28;20474;-66
2023/09/25 08:07:02;;;;;;;8.40;3.43;;;14.90;99.60;;;;;;5073708;28;20509;-66
2023/09/25 08:09:30;;;;;;;5.30;2.77;;;15.00;99.70;;;;;;5073831;28;20473;-66
2023/09/25 08:11:58;;;;;;;6.27;3.07;;;15.20;97.90;;;;;;5073536;28;20956;-66
2023/09/25 08:14:25;;;;;;;5.50;2.60;;;15.40;94.80;;;;;;5073531;28;20453;-66
2023/09/25 08:16:52;;;;;;;7.30;2.70;;;15.60;95.10;;;;;;5073799;28;20444;-66
2023/09/25 08:19:22;;;;;;;6.00;3.27;;;15.70;93.40;;;;;;5073106;28;20448;-66
2023/09/25 08:21:49;;;;;;;6.13;2.97;;;16.00;93.50;;;;;;5074161;28;20798;-68
2023/09/25 08:24:16;;;;;;;6.63;2.77;;;16.10;93.50;;;;;;5073044;28;20460;-69
2023/09/25 08:26:46;;;;;;;6.33;2.70;;;16.50;93.70;;;;;;5073833;28;20450;-69
2023/09/25 08:29:14;;;;;;;7.10;2.93;;;16.70;92.00;;;;;;5073173;28;20472;-69
2023/09/25 08:31:43;;;;;;;7.83;3.77;;;16.90;90.40;;;;;;5073447;28;20795;-69
2023/09/25 08:34:10;;;;;;;6.10;2.33;;;17.20;88.70;;;;;;5073150;28;20828;-69
2023/09/25 08:36:37;;;;;;;5.97;2.40;;;17.40;81.30;;;;;;5073227;28;20566;-69
2023/09/25 08:39:04;;;;;;;6.40;2.80;;;17.60;76.10;;;;;;5072476;28;20520;-69
2023/09/25 08:41:32;;;;;;;6.40;2.30;;;18.00;76.40;;;;;;5072971;28;20452;-69
2023/09/25 08:43:59;;;;;;;5.90;2.80;;;18.20;68.50;;;;;;5073810;28;20459;-70
2023/09/25 08:46:29;;;;;;;8.33;2.93;;;18.40;68.60;;;;;;5073464;28;20936;-69
2023/09/25 08:48:59;;;;;;;9.83;2.77;;;18.90;65.10;;;;;;5071914;28;20469;-69
2023/09/25 08:51:26;;;;;;;7.53;2.67;;;19.00;58.60;;;;;;5072782;28;20541;-69
2023/09/25 08:53:53;;;;;;;7.20;2.70;;;19.20;55.40;;;;;;5072297;28;20801;-69
2023/09/25 08:56:21;;;;;;;4.90;2.20;;;19.30;52.60;;;;;;5072012;28;20558;-69
2023/09/25 08:58:50;;;;;;;5.87;2.50;;;19.50;52.70;;;;;;5071423;28;20825;-69
2023/09/25 09:01:17;;;;;;;6.63;2.67;;;19.60;44.00;;;;;;5071109;28;20461;-68
2023/09/25 09:03:46;;;;;;;7.90;3.40;;;19.70;44.10;;;;;;5070843;28;20479;-69
2023/09/25 09:06:13;;;;;;;6.07;2.23;;;19.60;37.70;;;;;;5071636;28;20934;-68
2023/09/25 09:08:43;;;;;;;7.60;2.63;;;19.80;44.20;;;;;;5071620;28;20468;-70
2023/09/25 09:11:11;;;;;;;7.23;3.00;;;20.00;44.40;;;;;;5072568;28;20447;-69
2023/09/25 09:13:44;;;;;;;9.70;2.30;;;20.10;39.50;;;;;;5071511;28;20819;-70
2023/09/25 09:16:15;;;;;;;5.77;2.07;;;20.10;35.40;;;;;;5071881;28;20451;-68
2023/09/25 09:18:43;;;;;;;8.23;3.13;;;20.30;35.60;;;;;;5072060;28;20447;-70
2023/09/25 09:21:24;;;;;;;10.43;2.43;;;20.50;35.80;;;;;;5071969;28;20450;-69
2023/09/25 09:23:53;;;;;;;8.73;2.30;;;20.90;36.10;;;;;;5072632;28;20457;-70
2023/09/25 09:26:20;;;;;;;6.67;3.07;;;21.30;31.40;;;;;;5072577;28;20552;-69
2023/09/25 09:28:47;;;;;;;5.73;2.10;;;21.30;28.20;;;;;;5072047;28;20470;-69
2023/09/25 09:31:17;;;;;;;5.47;2.17;;;21.50;28.10;;;;;;5072395;28;20452;-68
2023/09/25 09:33:45;;;;;;;7.10;2.57;;;21.20;25.00;;;;;;5071846;28;21013;-70
2023/09/25 09:36:14;;;;;;;7.47;2.53;;;21.50;28.10;;;;;;5072467;28;20518;-70
2023/09/25 09:38:43;;;;;;;6.80;2.60;;;21.60;23.10;;;;;;5072108;28;20447;-69
2023/09/25 09:41:13;;;;;;;6.00;2.13;;;21.90;21.10;;;;;;5072020;28;20537;-69
2023/09/25 09:43:41;;;;;;;8.23;2.33;;;22.20;21.30;;;;;;5072417;28;20515;-69
2023/09/25 09:46:12;;;;;;;9.40;2.70;;;22.50;21.50;;;;;;5072426;28;20465;-70
2023/09/25 09:48:40;;;;;;;9.60;2.47;;;22.50;15.90;;;;;;5071813;28;20477;-68
2023/09/25 09:51:12;;;;;;;8.60;2.57;;;22.70;14.20;;;;;;5071849;28;20461;-69
2023/09/25 09:53:39;;;;;;;10.87;3.60;;;22.60;14.10;;;;;;5072749;28;20455;-69
2023/09/25 09:56:08;;;;;;;6.07;2.60;;;22.90;14.30;;;;;;5072342;28;20536;-70
2023/09/25 09:58:38;;;;;;;9.57;2.93;;;23.00;14.40;;;;;;5072855;28;20474;-70
2023/09/25 10:01:06;;;;;;;11.30;2.90;;;23.40;14.60;;;;;;5072345;28;20867;-69
2023/09/25 10:03:33;;;;;;;6.13;2.27;;;23.50;8.50;;;;;;5072503;28;20450;-70
2023/09/25 10:06:00;;;;;;;7.30;2.50;;;23.80;7.30;;;;;;5072831;28;20454;-69
2023/09/25 10:08:28;;;;;;;5.77;2.67;;;23.80;7.30;;;;;;5072194;28;20456;-69
2023/09/25 10:11:16;;;;;;;6.50;1.70;;;24.20;7.50;;;;;;5071931;28;20473;-69
2023/09/25 10:13:43;;;;;;;10.80;1.87;;;24.60;4.60;;;;;;5072394;28;20950;-67
2023/09/25 10:16:12;;;;;;;7.70;2.93;;;24.80;3.50;;;;;;5072144;28;20446;-69
2023/09/25 10:18:39;;;;;;;6.77;2.47;;;25.10;1.00;;;;;;5072348;28;20493;-69
2023/09/25 10:21:11;;;;;;;5.30;2.10;;;25.30;1.00;;;;;;5072099;28;20461;-69
2023/09/25 10:23:40;;;;;;;6.10;2.40;;;25.20;1.00;;;;;;5072142;28;20460;-69
2023/09/25 10:26:17;;;;;;;7.13;2.20;;;25.10;1.00;;;;;;5072439;28;20295;-69
2023/09/25 10:28:44;;;;;;;7.70;3.27;;;25.00;1.00;;;;;;5073173;28;20450;-70
2023/09/25 10:31:20;;;;;;;6.20;2.40;;;25.00;1.00;;;;;;5075361;28;20446;-68
2023/09/25 10:33:55;;;;;;;6.03;2.22;;;25.40;1.00;;;;;;5074153;28;20453;-68
2023/09/25 10:36:22;;;;;;;7.85;2.40;;;25.70;1.00;;;;;;5075109;28;20446;-69
2023/09/25 10:38:53;;;;;;;5.80;2.40;;;25.60;1.00;;;;;;5076078;28;20203;-69
2023/09/25 10:41:23;;;;;;;6.00;2.00;;;25.90;1.00;;;;;;5075680;28;20503;-69
2023/09/25 10:43:50;;;;;;;6.60;1.90;;;25.80;1.00;;;;;;5074709;28;20495;-70
2023/09/25 10:46:17;;;;;;;7.70;2.30;;;26.10;1.00;;;;;;5075001;28;20442;-69
2023/09/25 10:48:44;;;;;;;5.50;1.90;;;26.40;1.00;;;;;;5074827;28;20508;-70
2023/09/25 10:51:10;;;;;;;5.60;2.20;;;26.30;1.00;;;;;;5074838;28;20478;-69
2023/09/25 10:53:37;;;;;;;7.70;1.87;;;26.10;1.00;;;;;;5074910;28;20457;-70
2023/09/25 10:56:04;;;;;;;9.47;2.00;;;25.90;1.00;;;;;;5075027;28;20454;-70
2023/09/25 10:58:32;;;;;;;5.37;1.90;;;25.90;1.00;;;;;;5074813;28;20456;-70
2023/09/25 11:01:02;;;;;;;6.80;2.33;;;25.90;1.00;;;;;;5075135;28;20453;-70
2023/09/25 11:03:28;;;;;;;4.90;2.00;;;26.20;1.00;;;;;;5075105;28;20489;-70
2023/09/25 11:05:56;;;;;;;5.77;2.20;;;26.30;1.00;;;;;;5075259;28;20457;-69
2023/09/25 11:08:22;;;;;;;9.20;1.70;;;25.90;1.00;;;;;;5074946;28;20450;-70
2023/09/25 11:10:49;;;;;;;5.57;2.00;;;26.50;1.00;;;;;;5074969;28;20445;-70
2023/09/25 11:13:16;;;;;;;6.03;1.77;;;26.60;1.00;;;;;;5075203;28;20549;-69
2023/09/25 11:15:47;;;;;;;5.47;2.13;;;26.70;1.00;;;;;;5075336;28;20450;-69
2023/09/25 11:18:14;;;;;;;5.60;2.13;;;26.90;1.00;;;;;;5075349;28;20485;-69
2023/09/25 11:20:43;;;;;;;5.80;1.60;;;27.00;1.00;;;;;;5074964;28;21120;-70
2023/09/25 11:23:14;;;;;;;4.40;1.40;;;26.70;1.00;;;;;;5075076;28;20458;-69
2023/09/25 11:25:42;;;;;;;6.37;2.77;;;26.70;1.00;;;;;;5075229;28;20817;-69
2023/09/25 11:28:09;;;;;;;5.83;1.80;;;26.80;1.00;;;;;;5074949;28;20541;-70
2023/09/25 11:30:38;;;;;;;5.40;2.10;;;27.10;1.00;;;;;;5074671;28;20502;-70
2023/09/25 11:33:08;;;;;;;5.10;1.70;;;26.90;1.00;;;;;;5075269;28;20786;-69
2023/09/25 11:35:37;;;;;;;7.07;2.53;;;27.00;1.00;;;;;;5074482;28;20442;-69
2023/09/25 11:38:12;;;;;;;5.10;1.70;;;27.70;1.00;;;;;;5073597;28;20504;-70
2023/09/25 11:40:39;;;;;;;5.47;1.87;;;27.80;1.00;;;;;;5055478;28;20438;-70
2023/09/25 11:43:06;;;;;;;7.20;1.97;;;28.40;1.00;;;;;;5070588;28;21021;-69
2023/09/25 11:45:33;;;;;;;7.43;2.40;;;28.70;1.00;;;;;;5074703;28;20447;-70
2023/09/25 11:48:01;;;;;;;6.20;2.63;;;28.50;1.00;;;;;;5073780;28;20421;-70
2023/09/25 11:50:29;;;;;;;4.97;1.60;;;28.60;1.00;;;;;;5073101;28;20449;-70
2023/09/25 11:52:56;;;;;;;5.87;2.30;;;29.00;1.00;;;;;;5074525;28;20452;-70
2023/09/25 11:55:23;;;;;;;5.63;1.90;;;29.50;1.00;;;;;;5074050;28;20536;-70
2023/09/25 11:57:50;;;;;;;16.10;2.33;;;29.70;1.00;;;;;;5073669;28;20417;-71
2023/09/25 12:00:18;;;;;;;6.50;2.03;;;30.00;1.00;;;;;;5074415;28;20427;-67
2023/09/25 12:02:46;;;;;;;5.70;2.17;;;30.30;1.00;;;;;;5074195;28;20925;-70
2023/09/25 12:05:13;;;;;;;6.47;2.20;;;30.20;1.00;;;;;;5074151;28;20421;-69
2023/09/25 12:07:42;;;;;;;7.00;2.00;;;30.40;1.00;;;;;;5074070;28;20437;-68
2023/09/25 12:10:12;;;;;;;7.40;1.80;;;30.10;1.00;;;;;;5073824;28;20569;-68
2023/09/25 12:12:40;;;;;;;5.50;1.70;;;30.10;1.00;;;;;;5072598;28;20450;-68
2023/09/25 12:15:08;;;;;;;5.90;2.30;;;30.50;1.00;;;;;;5074025;28;20892;-69
2023/09/25 12:17:36;;;;;;;5.73;2.00;;;30.30;1.00;;;;;;5073997;28;20417;-68
2023/09/25 12:20:07;;;;;;;11.67;2.43;;;30.20;1.00;;;;;;5074061;28;20446;-69
2023/09/25 12:22:37;;;;;;;5.80;2.00;;;30.30;1.00;;;;;;5074191;28;20805;-69
2023/09/25 12:25:06;;;;;;;6.73;1.70;;;30.50;1.00;;;;;;5074227;28;20450;-68
2023/09/25 12:27:33;;;;;;;6.63;2.47;;;30.20;1.00;;;;;;5073913;28;20456;-68